Kitty Hawk, North Carolina
Current Conditions -  °F | °C
As of 7:55 PM on Monday 26 Jan 2015 (Local Time) from KFFA Reporting Station
Overcast Overcast  
Wind Chill: 37°   Ceiling: 800
Heat Index: 43°   Visibility: 7mi
Dew Point: 42°   Wind: 13mph
Humidity: 95%   Direction: 340°NNW
Pressure: 29.54"   Gusts: 23mph
Location:  36.06°N, 75.71°W
Report Text: KFFA 270055Z AUTO 34011G20KT 290V010 7SM OVC008 06/06 A2954 RMK AO2 T00630055
Loading
Personal Weather Stations






























Interactive Weather Map New forecast layout! Learn more

10-Day Weather Forecast

Advertisements
Track Severe Weather on mobile